createdAt,value
2022-08-31T00:00:09.311Z,4.28
2022-08-31T00:02:54.644Z,3.90
2022-08-31T00:05:21.817Z,4.20
2022-08-31T00:07:48.433Z,4.05
2022-08-31T00:10:15.747Z,4.30
2022-08-31T00:12:43.795Z,4.45
2022-08-31T00:15:13.450Z,4.05
2022-08-31T00:17:40.844Z,4.10
2022-08-31T00:20:09.797Z,4.40
2022-08-31T00:22:57.053Z,4.13
2022-08-31T00:25:24.113Z,4.60
2022-08-31T00:27:50.914Z,4.47
2022-08-31T00:30:17.490Z,4.32
2022-08-31T00:32:44.045Z,5.03
2022-08-31T00:35:10.615Z,4.72
2022-08-31T00:37:37.358Z,4.70
2022-08-31T00:40:04.856Z,4.22
2022-08-31T00:42:31.503Z,4.78
2022-08-31T00:44:58.148Z,4.45
2022-08-31T00:47:24.738Z,3.90
2022-08-31T00:49:52.782Z,4.38
2022-08-31T00:52:33.316Z,4.65
2022-08-31T00:55:17.905Z,4.82
2022-08-31T00:57:48.196Z,4.35
2022-08-31T01:00:18.910Z,4.60
2022-08-31T01:02:45.795Z,4.65
2022-08-31T01:05:13.598Z,5.00
2022-08-31T01:07:41.869Z,4.90
2022-08-31T01:10:09.929Z,5.75
2022-08-31T01:12:37.465Z,5.43
2022-08-31T01:15:25.791Z,5.25
2022-08-31T01:17:55.328Z,5.15
2022-08-31T01:20:49.122Z,5.30
2022-08-31T01:23:21.444Z,4.82
2022-08-31T01:25:49.166Z,4.78
2022-08-31T01:28:16.023Z,4.40
2022-08-31T01:30:44.313Z,4.55
2022-08-31T01:33:13.273Z,5.40
2022-08-31T01:35:44.736Z,4.07
2022-08-31T01:38:13.292Z,4.35
2022-08-31T01:40:49.362Z,4.57
2022-08-31T01:43:16.551Z,4.10
2022-08-31T01:45:43.349Z,4.55
2022-08-31T01:48:10.431Z,4.38
2022-08-31T01:50:37.098Z,5.28
2022-08-31T01:53:04.005Z,5.10
2022-08-31T01:55:30.876Z,4.60
2022-08-31T01:57:58.898Z,5.15
2022-08-31T02:00:25.907Z,4.55
2022-08-31T02:02:52.502Z,4.93
2022-08-31T02:05:19.356Z,5.00
2022-08-31T02:07:46.074Z,4.72
2022-08-31T02:10:12.699Z,4.93
2022-08-31T02:12:39.350Z,4.30
2022-08-31T02:15:06.726Z,5.10
2022-08-31T02:17:33.281Z,4.60
2022-08-31T02:19:59.863Z,5.00
2022-08-31T02:22:26.467Z,4.88
2022-08-31T02:24:53.020Z,4.72
2022-08-31T02:27:19.647Z,4.78
2022-08-31T02:29:46.268Z,4.70
2022-08-31T02:32:20.330Z,5.00
2022-08-31T02:34:48.541Z,4.85
2022-08-31T02:37:15.535Z,4.95
2022-08-31T02:39:44.287Z,5.28
2022-08-31T02:42:11.064Z,4.55
2022-08-31T02:44:37.606Z,4.72
2022-08-31T02:47:04.357Z,4.63
2022-08-31T02:49:33.045Z,4.97
2022-08-31T02:51:59.677Z,5.10
2022-08-31T02:54:26.213Z,4.72
2022-08-31T02:56:52.969Z,4.80
2022-08-31T02:59:20.763Z,4.93
2022-08-31T03:01:48.306Z,5.50
2022-08-31T03:04:15.017Z,4.50
2022-08-31T03:06:41.870Z,4.85
2022-08-31T03:09:08.407Z,5.28
2022-08-31T03:11:34.984Z,4.55
2022-08-31T03:14:01.564Z,4.80
2022-08-31T03:16:28.137Z,4.97
2022-08-31T03:18:54.798Z,4.40
2022-08-31T03:21:21.402Z,4.75
2022-08-31T03:23:48.003Z,5.20
2022-08-31T03:26:14.680Z,4.88
2022-08-31T03:28:41.296Z,5.03
2022-08-31T03:31:09.899Z,5.15
2022-08-31T03:33:36.692Z,4.95
2022-08-31T03:36:05.779Z,5.10
2022-08-31T03:38:32.507Z,5.20
2022-08-31T03:41:01.313Z,5.13
2022-08-31T03:43:27.958Z,5.20
2022-08-31T03:45:54.999Z,5.55
2022-08-31T03:48:21.635Z,5.40
2022-08-31T03:50:48.202Z,5.30
2022-08-31T03:53:15.101Z,5.13
2022-08-31T03:55:43.941Z,5.38
2022-08-31T03:58:12.027Z,4.85
2022-08-31T04:00:39.597Z,5.20
2022-08-31T04:03:06.340Z,5.07
2022-08-31T04:05:36.650Z,5.15
2022-08-31T04:08:03.458Z,5.30
2022-08-31T04:10:30.055Z,5.53
2022-08-31T04:12:56.614Z,5.35
2022-08-31T04:15:23.321Z,5.85
2022-08-31T04:17:49.933Z,4.90
2022-08-31T04:20:29.489Z,5.18
2022-08-31T04:22:56.740Z,5.35
2022-08-31T04:25:23.295Z,4.95
2022-08-31T04:27:50.383Z,5.38
2022-08-31T04:30:18.143Z,4.80
2022-08-31T04:32:44.720Z,5.22
2022-08-31T04:35:11.433Z,4.80
2022-08-31T04:37:40.488Z,5.10
2022-08-31T04:45:16.973Z,5.60
2022-08-31T04:47:43.889Z,6.03
2022-08-31T04:50:12.617Z,5.45
2022-08-31T04:52:39.296Z,5.45
2022-08-31T04:55:07.297Z,5.50
2022-08-31T04:57:35.711Z,5.00
2022-08-31T05:00:04.579Z,5.32
2022-08-31T05:02:33.377Z,4.40
2022-08-31T05:05:00.566Z,4.82
2022-08-31T05:07:27.177Z,5.30
2022-08-31T05:09:53.914Z,5.72
2022-08-31T05:12:20.553Z,5.50
2022-08-31T05:14:47.922Z,5.38
2022-08-31T05:17:16.656Z,5.68
2022-08-31T05:19:43.942Z,6.30
2022-08-31T05:22:11.194Z,5.43
2022-08-31T05:24:38.936Z,5.95
2022-08-31T05:27:06.499Z,5.10
2022-08-31T05:29:33.239Z,6.20
2022-08-31T05:31:59.950Z,5.72
2022-08-31T05:34:26.952Z,5.43
2022-08-31T05:36:55.782Z,5.10
2022-08-31T05:39:23.953Z,5.15
2022-08-31T05:41:50.528Z,5.20
2022-08-31T05:44:18.093Z,5.90
2022-08-31T05:46:45.027Z,5.72
2022-08-31T05:49:21.279Z,6.38
2022-08-31T05:51:47.813Z,6.30
2022-08-31T05:54:15.986Z,6.25
2022-08-31T05:56:42.905Z,5.60
2022-08-31T05:59:09.864Z,5.63
2022-08-31T06:01:39.643Z,6.45
2022-08-31T06:04:08.343Z,6.35
2022-08-31T06:06:35.561Z,6.57
2022-08-31T06:09:02.130Z,6.00
2022-08-31T06:11:31.000Z,6.63
2022-08-31T06:14:00.430Z,6.30
2022-08-31T06:16:28.052Z,6.65
2022-08-31T06:18:55.806Z,6.03
2022-08-31T06:21:36.435Z,6.82
2022-08-31T06:24:05.475Z,6.43
2022-08-31T06:26:34.835Z,6.43
2022-08-31T06:29:04.571Z,6.90
2022-08-31T06:31:36.334Z,5.60
2022-08-31T06:36:31.493Z,6.45
2022-08-31T06:38:59.826Z,6.15
2022-08-31T06:41:35.808Z,7.03
2022-08-31T06:44:05.906Z,5.78
2022-08-31T06:46:34.477Z,5.68
2022-08-31T06:49:02.016Z,5.28
2022-08-31T06:51:29.078Z,5.40
2022-08-31T06:53:59.357Z,5.20
2022-08-31T06:56:35.654Z,5.78
2022-08-31T06:59:02.969Z,5.43
2022-08-31T07:01:35.311Z,4.70
2022-08-31T07:04:07.568Z,5.32
2022-08-31T07:06:41.313Z,4.95
2022-08-31T07:09:11.047Z,4.53
2022-08-31T07:11:44.725Z,4.63
2022-08-31T07:14:14.535Z,4.63
2022-08-31T07:16:42.182Z,4.05
2022-08-31T07:19:09.325Z,4.05
2022-08-31T07:21:41.835Z,4.18
2022-08-31T07:24:10.277Z,3.60
2022-08-31T07:26:47.639Z,3.70
2022-08-31T07:29:17.432Z,4.22
2022-08-31T07:31:46.569Z,3.75
2022-08-31T07:34:17.271Z,3.40
2022-08-31T07:37:02.405Z,3.85
2022-08-31T07:39:48.983Z,4.00
2022-08-31T07:42:22.555Z,3.20
2022-08-31T07:44:53.452Z,3.45
2022-08-31T07:47:22.687Z,3.30
2022-08-31T07:49:52.769Z,3.80
2022-08-31T07:52:23.822Z,3.22
2022-08-31T07:54:52.574Z,3.43
2022-08-31T07:57:20.193Z,4.18
2022-08-31T07:59:50.061Z,3.92
2022-08-31T08:02:17.664Z,3.33
2022-08-31T08:04:45.125Z,3.65
2022-08-31T08:07:12.811Z,3.97
2022-08-31T08:09:39.436Z,3.95
2022-08-31T08:12:06.492Z,3.50
2022-08-31T08:14:36.150Z,4.25
2022-08-31T08:17:05.544Z,4.25
2022-08-31T08:19:33.796Z,4.82
2022-08-31T08:22:04.330Z,4.35
2022-08-31T08:24:32.675Z,4.30
2022-08-31T08:27:00.192Z,4.82
2022-08-31T08:29:29.920Z,4.50
2022-08-31T08:32:00.562Z,4.45
2022-08-31T08:34:31.693Z,4.95
2022-08-31T08:36:59.696Z,5.05
2022-08-31T08:39:27.181Z,5.28
2022-08-31T08:41:57.814Z,5.50
2022-08-31T08:44:28.601Z,5.35
2022-08-31T08:46:58.627Z,6.32
2022-08-31T08:49:28.935Z,6.30
2022-08-31T08:52:07.333Z,6.95
2022-08-31T08:54:39.494Z,6.72
2022-08-31T08:57:15.658Z,7.05
2022-08-31T08:59:46.999Z,7.57
2022-08-31T09:02:24.112Z,6.78
2022-08-31T09:05:18.720Z,5.38
2022-08-31T09:08:00.643Z,6.53
2022-08-31T09:10:42.523Z,5.90
2022-08-31T09:13:21.173Z,6.65
2022-08-31T09:16:12.064Z,7.15
2022-08-31T09:18:50.114Z,5.55
2022-08-31T09:21:30.979Z,5.68
2022-08-31T09:24:02.633Z,5.80
2022-08-31T09:26:50.897Z,6.05
2022-08-31T09:29:24.657Z,5.82
2022-08-31T09:32:05.952Z,6.07
2022-08-31T09:34:37.397Z,6.15
2022-08-31T09:37:24.261Z,5.80
2022-08-31T09:39:53.044Z,4.85
2022-08-31T09:42:29.192Z,5.38
2022-08-31T09:45:00.261Z,5.82
2022-08-31T09:47:43.216Z,5.55
2022-08-31T09:50:12.010Z,5.75
2022-08-31T09:52:58.811Z,4.68
2022-08-31T09:55:28.172Z,4.47
2022-08-31T09:57:57.697Z,6.10
2022-08-31T10:00:45.100Z,4.45
2022-08-31T10:03:19.180Z,5.97
2022-08-31T10:05:47.343Z,5.60
2022-08-31T10:08:28.228Z,5.50
2022-08-31T10:11:01.964Z,4.35
2022-08-31T10:13:39.198Z,4.05
2022-08-31T10:16:26.276Z,4.75
2022-08-31T10:18:55.627Z,4.97
2022-08-31T10:21:35.491Z,4.18
2022-08-31T10:24:33.716Z,4.65
2022-08-31T10:27:08.280Z,4.65
2022-08-31T10:29:44.144Z,5.07
2022-08-31T10:32:23.849Z,4.80
2022-08-31T10:35:05.022Z,4.30
2022-08-31T10:37:38.679Z,4.20
2022-08-31T10:40:14.062Z,4.00
2022-08-31T10:43:01.712Z,4.40
2022-08-31T10:45:31.570Z,3.95
2022-08-31T10:47:59.887Z,3.75
2022-08-31T10:50:39.243Z,3.97
2022-08-31T10:53:32.619Z,4.53
2022-08-31T10:56:12.807Z,4.82
2022-08-31T10:59:00.634Z,5.00
2022-08-31T11:01:35.408Z,4.47
2022-08-31T11:04:02.189Z,4.70
2022-08-31T11:06:44.156Z,3.92
2022-08-31T11:09:22.400Z,6.05
2022-08-31T11:12:07.348Z,5.57
2022-08-31T11:15:01.997Z,5.15
2022-08-31T11:17:52.988Z,5.30
2022-08-31T11:20:41.719Z,5.47
2022-08-31T11:23:35.874Z,5.05
2022-08-31T11:26:16.842Z,5.82
2022-08-31T11:28:49.570Z,6.15
2022-08-31T11:31:24.075Z,5.43
2022-08-31T11:34:15.515Z,5.18
2022-08-31T11:37:01.499Z,4.65
2022-08-31T11:39:31.093Z,5.18
2022-08-31T11:41:59.296Z,4.78
2022-08-31T11:44:36.937Z,6.05
2022-08-31T11:47:05.786Z,5.15
2022-08-31T11:49:43.828Z,5.50
2022-08-31T11:52:29.804Z,5.47
2022-08-31T11:54:59.024Z,5.75
2022-08-31T11:57:36.890Z,6.18
2022-08-31T12:00:19.232Z,4.65
2022-08-31T12:03:01.563Z,4.78
2022-08-31T12:05:50.982Z,4.43
2022-08-31T12:08:18.163Z,4.40
2022-08-31T12:11:05.451Z,5.25
2022-08-31T12:13:49.941Z,5.18
2022-08-31T12:16:21.828Z,5.85
2022-08-31T12:22:18.466Z,6.07
2022-08-31T12:25:11.583Z,6.50
2022-08-31T12:27:47.379Z,6.13
2022-08-31T12:30:22.550Z,5.45
2022-08-31T12:32:59.075Z,5.50
2022-08-31T12:35:28.619Z,4.90
2022-08-31T12:38:02.818Z,5.50
2022-08-31T12:40:35.783Z,5.50
2022-08-31T12:43:20.107Z,5.53
2022-08-31T12:46:02.355Z,4.80
2022-08-31T12:48:51.687Z,4.57
2022-08-31T12:51:28.083Z,4.80
2022-08-31T12:54:16.310Z,4.22
2022-08-31T12:57:07.613Z,4.80
2022-08-31T13:02:27.095Z,3.50
2022-08-31T13:04:54.267Z,3.78
2022-08-31T13:07:23.971Z,3.75
2022-08-31T13:10:15.625Z,3.33
2022-08-31T13:12:54.004Z,3.60
2022-08-31T13:15:42.597Z,3.00
2022-08-31T13:18:16.105Z,3.22
2022-08-31T13:20:44.229Z,3.08
2022-08-31T13:23:15.205Z,3.17
2022-08-31T13:28:13.888Z,3.22
2022-08-31T13:33:27.108Z,2.80
2022-08-31T13:36:30.290Z,2.88
2022-08-31T13:38:57.130Z,3.00
2022-08-31T13:41:30.071Z,3.13
2022-08-31T13:44:01.367Z,2.42
2022-08-31T13:46:42.433Z,2.80
2022-08-31T13:49:26.066Z,2.70
2022-08-31T13:51:52.914Z,2.70
2022-08-31T13:57:11.071Z,2.92
2022-08-31T13:59:39.698Z,2.47
2022-08-31T14:02:36.737Z,2.53
2022-08-31T14:05:07.911Z,2.47
2022-08-31T14:07:43.479Z,2.42
2022-08-31T14:10:17.478Z,2.42
2022-08-31T14:12:54.690Z,2.53
2022-08-31T14:15:37.832Z,2.97
2022-08-31T14:18:24.394Z,2.30
2022-08-31T14:21:20.513Z,2.28
2022-08-31T14:24:02.033Z,2.30
2022-08-31T14:26:34.778Z,2.17
2022-08-31T14:29:10.915Z,2.20
2022-08-31T14:31:52.369Z,2.10
2022-08-31T14:34:24.395Z,2.15
2022-08-31T14:36:53.765Z,1.98
2022-08-31T14:39:22.250Z,2.13
2022-08-31T14:41:49.276Z,2.20
2022-08-31T14:44:20.094Z,1.95
2022-08-31T14:46:46.752Z,2.00
2022-08-31T14:49:13.555Z,2.00
2022-08-31T14:51:41.294Z,1.70
2022-08-31T14:54:09.043Z,1.90
2022-08-31T14:56:46.815Z,2.10
2022-08-31T14:59:16.280Z,1.70
2022-08-31T15:01:46.848Z,2.00
2022-08-31T15:04:16.131Z,2.03
2022-08-31T15:06:47.571Z,1.80
2022-08-31T15:11:43.683Z,1.42
2022-08-31T15:14:12.530Z,1.90
2022-08-31T15:16:44.248Z,1.95
2022-08-31T15:19:14.877Z,1.90
2022-08-31T15:21:51.795Z,1.97
2022-08-31T15:24:21.885Z,1.90
2022-08-31T15:26:48.989Z,1.80
2022-08-31T15:29:16.555Z,1.67
2022-08-31T15:31:49.754Z,1.95
2022-08-31T15:34:31.291Z,1.88
2022-08-31T15:37:03.926Z,2.10
2022-08-31T15:39:36.624Z,1.88
2022-08-31T15:42:09.353Z,2.30
2022-08-31T15:44:40.989Z,2.15
2022-08-31T15:49:55.698Z,2.20
2022-08-31T15:52:27.706Z,2.20
2022-08-31T15:54:55.058Z,2.30
2022-08-31T15:57:23.467Z,1.98
2022-08-31T15:59:50.627Z,2.50
2022-08-31T16:02:20.838Z,2.30
2022-08-31T16:04:50.561Z,2.30
2022-08-31T16:07:17.836Z,2.38
2022-08-31T16:09:47.455Z,2.38
2022-08-31T16:12:16.005Z,2.30
2022-08-31T16:14:46.230Z,2.25
2022-08-31T16:17:17.129Z,2.42
2022-08-31T16:19:43.733Z,2.33
2022-08-31T16:22:10.522Z,2.40
2022-08-31T16:24:37.753Z,2.05
2022-08-31T16:27:07.953Z,2.15
2022-08-31T16:29:36.299Z,2.45
2022-08-31T16:32:04.277Z,2.10
2022-08-31T16:34:31.557Z,2.55
2022-08-31T16:36:59.851Z,2.88
2022-08-31T16:39:28.316Z,2.08
2022-08-31T16:41:55.341Z,2.60
2022-08-31T16:44:21.891Z,2.40
2022-08-31T16:46:49.024Z,2.30
2022-08-31T16:49:34.095Z,2.22
2022-08-31T16:52:05.739Z,2.28
2022-08-31T16:57:00.365Z,1.80
2022-08-31T16:59:29.132Z,2.13
2022-08-31T17:01:55.950Z,1.90
2022-08-31T17:04:50.604Z,2.40
2022-08-31T17:07:14.798Z,2.20
2022-08-31T17:09:42.538Z,2.53
2022-08-31T17:12:13.430Z,2.28
2022-08-31T17:14:46.999Z,2.60
2022-08-31T17:17:16.908Z,2.40
2022-08-31T17:19:44.913Z,2.50
2022-08-31T17:22:21.502Z,2.33
2022-08-31T17:24:50.586Z,2.30
2022-08-31T17:27:21.061Z,2.20
2022-08-31T17:29:51.797Z,2.40
2022-08-31T17:32:23.978Z,2.47
2022-08-31T17:34:51.967Z,2.70
2022-08-31T17:37:26.871Z,2.47
2022-08-31T17:39:53.974Z,2.60
2022-08-31T17:42:22.812Z,2.50
2022-08-31T17:44:53.071Z,3.00
2022-08-31T17:47:21.886Z,3.17
2022-08-31T17:49:50.806Z,3.40
2022-08-31T17:52:20.712Z,3.35
2022-08-31T17:54:48.491Z,3.40
2022-08-31T17:57:16.802Z,3.30
2022-08-31T17:59:48.910Z,3.40
2022-08-31T18:02:35.013Z,3.65
2022-08-31T18:05:03.333Z,3.40
2022-08-31T18:07:36.769Z,2.90
2022-08-31T18:10:04.770Z,3.53
2022-08-31T18:12:31.467Z,3.55
2022-08-31T18:14:58.260Z,3.65
2022-08-31T18:17:26.540Z,3.67
2022-08-31T18:19:54.678Z,3.60
2022-08-31T18:22:21.651Z,3.63
2022-08-31T18:24:48.339Z,3.30
2022-08-31T18:27:15.375Z,3.60
2022-08-31T18:29:44.236Z,3.38
2022-08-31T18:32:11.564Z,3.47
2022-08-31T18:34:41.014Z,3.90
2022-08-31T18:37:09.846Z,3.60
2022-08-31T18:39:59.618Z,3.92
2022-08-31T18:42:46.065Z,3.13
2022-08-31T18:45:15.437Z,3.80
2022-08-31T18:47:42.115Z,3.33
2022-08-31T18:50:09.104Z,3.17
2022-08-31T18:52:39.231Z,3.20
2022-08-31T18:55:06.547Z,3.35
2022-08-31T18:57:33.329Z,3.30
2022-08-31T19:00:03.259Z,3.58
2022-08-31T19:02:30.121Z,3.17
2022-08-31T19:04:57.420Z,3.42
2022-08-31T19:07:24.229Z,3.28
2022-08-31T19:09:52.140Z,3.63
2022-08-31T19:12:19.555Z,2.90
2022-08-31T19:14:51.907Z,3.13
2022-08-31T19:17:19.174Z,3.35
2022-08-31T19:19:48.677Z,3.42
2022-08-31T19:22:16.522Z,3.10
2022-08-31T19:24:43.071Z,3.17
2022-08-31T19:27:10.332Z,3.10
2022-08-31T19:29:37.816Z,3.38
2022-08-31T19:32:05.899Z,2.63
2022-08-31T19:34:36.317Z,3.28
2022-08-31T19:37:05.980Z,3.40
2022-08-31T19:39:37.280Z,3.10
2022-08-31T19:42:07.990Z,3.10
2022-08-31T19:47:25.521Z,3.33
2022-08-31T19:49:52.901Z,3.40
2022-08-31T19:52:20.167Z,3.95
2022-08-31T19:54:48.491Z,3.90
2022-08-31T19:57:16.372Z,4.30
2022-08-31T19:59:42.974Z,3.80
2022-08-31T20:02:09.730Z,3.83
2022-08-31T20:04:36.744Z,4.50
2022-08-31T20:07:06.396Z,3.92
2022-08-31T20:09:34.412Z,3.90
2022-08-31T20:12:02.074Z,3.72
2022-08-31T20:14:28.874Z,3.95
2022-08-31T20:16:55.452Z,4.00
2022-08-31T20:19:25.136Z,3.50
2022-08-31T20:21:54.272Z,3.78
2022-08-31T20:24:25.788Z,3.70
2022-08-31T20:26:55.566Z,3.72
2022-08-31T20:29:23.614Z,4.30
2022-08-31T20:31:51.897Z,4.43
2022-08-31T20:34:22.058Z,4.45
2022-08-31T20:36:52.380Z,4.55
2022-08-31T20:39:20.001Z,4.60
2022-08-31T20:41:49.938Z,4.18
2022-08-31T20:44:36.762Z,4.60
2022-08-31T20:47:27.620Z,4.50
2022-08-31T20:49:57.015Z,4.05
2022-08-31T20:52:26.147Z,3.88
2022-08-31T20:55:01.437Z,3.67
2022-08-31T20:57:30.307Z,3.78
2022-08-31T20:59:56.997Z,3.72
2022-08-31T21:02:23.666Z,3.88
2022-08-31T21:04:50.389Z,3.38
2022-08-31T21:07:19.060Z,3.33
2022-08-31T21:09:46.623Z,2.90
2022-08-31T21:12:18.062Z,3.42
2022-08-31T21:14:46.097Z,3.30
2022-08-31T21:17:14.295Z,3.90
2022-08-31T21:19:41.927Z,3.58
2022-08-31T21:22:12.089Z,3.50
2022-08-31T21:24:41.885Z,3.45
2022-08-31T21:27:14.686Z,3.63
2022-08-31T21:29:43.531Z,3.15
2022-08-31T21:32:10.663Z,3.63
2022-08-31T21:34:38.292Z,4.00
2022-08-31T21:37:05.700Z,3.78
2022-08-31T21:39:32.496Z,3.80
2022-08-31T21:41:59.710Z,4.25
2022-08-31T21:44:27.116Z,3.60
2022-08-31T21:46:54.009Z,4.10
2022-08-31T21:49:20.998Z,4.10
2022-08-31T21:51:49.780Z,3.83
2022-08-31T21:54:19.292Z,3.60
2022-08-31T21:56:51.525Z,3.80
2022-08-31T21:59:20.833Z,3.80
2022-08-31T22:01:48.674Z,3.92
2022-08-31T22:04:16.300Z,3.60
2022-08-31T22:06:43.200Z,4.03
2022-08-31T22:09:12.992Z,4.25
2022-08-31T22:11:45.630Z,3.80
2022-08-31T22:14:16.391Z,3.60
2022-08-31T22:16:46.589Z,3.55
2022-08-31T22:19:15.545Z,3.90
2022-08-31T22:21:44.618Z,4.30
2022-08-31T22:24:15.617Z,3.60
2022-08-31T22:26:56.092Z,3.97
2022-08-31T22:29:27.826Z,4.07
2022-08-31T22:31:57.843Z,4.43
2022-08-31T22:34:25.629Z,4.07
2022-08-31T22:36:54.194Z,4.25
2022-08-31T22:39:23.680Z,4.45
2022-08-31T22:41:51.421Z,4.13
2022-08-31T22:44:20.696Z,3.85
2022-08-31T22:46:48.247Z,4.47
2022-08-31T22:49:15.465Z,4.57
2022-08-31T22:51:47.546Z,4.05
2022-08-31T22:56:42.488Z,4.70
2022-08-31T22:59:15.784Z,4.60
2022-08-31T23:01:55.019Z,4.20
2022-08-31T23:04:25.021Z,4.32
2022-08-31T23:06:52.906Z,4.10
2022-08-31T23:09:21.910Z,4.10
2022-08-31T23:11:51.739Z,4.30
2022-08-31T23:14:21.043Z,4.30
2022-08-31T23:16:57.203Z,4.38
2022-08-31T23:19:28.454Z,4.13
2022-08-31T23:21:57.604Z,4.80
2022-08-31T23:24:31.371Z,4.60
2022-08-31T23:27:03.855Z,4.75
2022-08-31T23:29:34.568Z,4.35
2022-08-31T23:32:01.345Z,4.35
2022-08-31T23:34:27.917Z,4.70
2022-08-31T23:36:55.748Z,4.90
2022-08-31T23:39:23.852Z,4.80
2022-08-31T23:41:51.151Z,4.72
2022-08-31T23:44:21.004Z,4.45
2022-08-31T23:46:48.315Z,4.53
2022-08-31T23:49:18.008Z,4.85
2022-08-31T23:51:45.254Z,5.50
2022-08-31T23:54:12.621Z,4.85
2022-08-31T23:56:41.763Z,4.80
2022-08-31T23:59:11.882Z,4.80
